sensor_id;sensor_type;location;lat;lon;timestamp;P1;durP1;ratioP1;P2;durP2;ratioP2
3949;SDS011;53057;50.988;6.314;2022-10-16T00:02:16;1.63;;;1.43;;
3949;SDS011;53057;50.988;6.314;2022-10-16T00:04:43;2.33;;;2.13;;
3949;SDS011;53057;50.988;6.314;2022-10-16T00:07:10;2.13;;;1.50;;
3949;SDS011;53057;50.988;6.314;2022-10-16T00:09:37;1.50;;;1.37;;
3949;SDS011;53057;50.988;6.314;2022-10-16T00:12:03;1.93;;;1.63;;
3949;SDS011;53057;50.988;6.314;2022-10-16T00:14:30;7.00;;;1.83;;
3949;SDS011;53057;50.988;6.314;2022-10-16T00:16:57;3.60;;;1.63;;
3949;SDS011;53057;50.988;6.314;2022-10-16T00:19:23;5.33;;;2.20;;
3949;SDS011;53057;50.988;6.314;2022-10-16T00:21:50;2.13;;;1.80;;
3949;SDS011;53057;50.988;6.314;2022-10-16T00:24:36;1.73;;;1.63;;
3949;SDS011;53057;50.988;6.314;2022-10-16T00:27:03;3.83;;;2.10;;
3949;SDS011;53057;50.988;6.314;2022-10-16T00:29:29;4.60;;;1.60;;
3949;SDS011;53057;50.988;6.314;2022-10-16T00:31:56;2.10;;;1.60;;
3949;SDS011;53057;50.988;6.314;2022-10-16T00:34:22;4.17;;;1.77;;
3949;SDS011;53057;50.988;6.314;2022-10-16T00:36:49;2.10;;;1.63;;
3949;SDS011;53057;50.988;6.314;2022-10-16T00:39:15;8.03;;;2.17;;
3949;SDS011;53057;50.988;6.314;2022-10-16T00:41:42;2.53;;;1.70;;
3949;SDS011;53057;50.988;6.314;2022-10-16T00:46:54;10.83;;;3.00;;
3949;SDS011;53057;50.988;6.314;2022-10-16T00:49:20;3.93;;;2.03;;
3949;SDS011;53057;50.988;6.314;2022-10-16T00:51:48;2.03;;;1.70;;
3949;SDS011;53057;50.988;6.314;2022-10-16T00:54:26;3.30;;;1.70;;
3949;SDS011;53057;50.988;6.314;2022-10-16T00:56:53;13.43;;;2.37;;
3949;SDS011;53057;50.988;6.314;2022-10-16T00:59:22;2.10;;;2.00;;
3949;SDS011;53057;50.988;6.314;2022-10-16T01:01:51;9.57;;;2.17;;
3949;SDS011;53057;50.988;6.314;2022-10-16T01:04:18;2.40;;;2.10;;
3949;SDS011;53057;50.988;6.314;2022-10-16T01:09:25;2.03;;;1.37;;
3949;SDS011;53057;50.988;6.314;2022-10-16T01:11:57;2.77;;;1.93;;
3949;SDS011;53057;50.988;6.314;2022-10-16T01:14:32;5.40;;;1.73;;
3949;SDS011;53057;50.988;6.314;2022-10-16T01:17:09;1.63;;;1.50;;
3949;SDS011;53057;50.988;6.314;2022-10-16T01:22:04;3.03;;;1.73;;
3949;SDS011;53057;50.988;6.314;2022-10-16T01:24:38;3.43;;;1.10;;
3949;SDS011;53057;50.988;6.314;2022-10-16T01:29:44;1.20;;;1.10;;
3949;SDS011;53057;50.988;6.314;2022-10-16T01:34:47;2.47;;;1.77;;
3949;SDS011;53057;50.988;6.314;2022-10-16T01:37:35;2.30;;;1.80;;
3949;SDS011;53057;50.988;6.314;2022-10-16T01:40:05;2.70;;;1.80;;
3949;SDS011;53057;50.988;6.314;2022-10-16T01:42:34;4.63;;;3.00;;
3949;SDS011;53057;50.988;6.314;2022-10-16T01:45:02;1.43;;;1.33;;
3949;SDS011;53057;50.988;6.314;2022-10-16T01:47:32;3.53;;;1.60;;
3949;SDS011;53057;50.988;6.314;2022-10-16T01:49:59;1.50;;;1.40;;
3949;SDS011;53057;50.988;6.314;2022-10-16T01:52:28;4.73;;;1.40;;
3949;SDS011;53057;50.988;6.314;2022-10-16T01:54:55;1.53;;;1.43;;
3949;SDS011;53057;50.988;6.314;2022-10-16T01:57:23;1.47;;;1.20;;
3949;SDS011;53057;50.988;6.314;2022-10-16T01:59:51;3.33;;;1.40;;
3949;SDS011;53057;50.988;6.314;2022-10-16T02:02:19;3.27;;;0.90;;
3949;SDS011;53057;50.988;6.314;2022-10-16T02:04:52;3.17;;;1.37;;
3949;SDS011;53057;50.988;6.314;2022-10-16T02:07:19;1.13;;;1.03;;
3949;SDS011;53057;50.988;6.314;2022-10-16T02:09:46;1.27;;;1.17;;
3949;SDS011;53057;50.988;6.314;2022-10-16T02:12:14;1.00;;;1.00;;
3949;SDS011;53057;50.988;6.314;2022-10-16T02:14:41;2.70;;;1.10;;
3949;SDS011;53057;50.988;6.314;2022-10-16T02:17:13;2.40;;;1.20;;
3949;SDS011;53057;50.988;6.314;2022-10-16T02:19:40;1.70;;;1.27;;
3949;SDS011;53057;50.988;6.314;2022-10-16T02:22:08;5.63;;;1.13;;
3949;SDS011;53057;50.988;6.314;2022-10-16T02:24:38;1.20;;;1.10;;
3949;SDS011;53057;50.988;6.314;2022-10-16T02:27:06;1.70;;;1.17;;
3949;SDS011;53057;50.988;6.314;2022-10-16T02:29:37;1.80;;;1.00;;
3949;SDS011;53057;50.988;6.314;2022-10-16T02:32:05;2.70;;;1.63;;
3949;SDS011;53057;50.988;6.314;2022-10-16T02:34:33;3.53;;;1.50;;
3949;SDS011;53057;50.988;6.314;2022-10-16T02:37:00;1.43;;;1.33;;
3949;SDS011;53057;50.988;6.314;2022-10-16T02:39:28;2.80;;;1.23;;
3949;SDS011;53057;50.988;6.314;2022-10-16T02:41:55;0.80;;;0.80;;
3949;SDS011;53057;50.988;6.314;2022-10-16T02:44:21;1.67;;;1.07;;
3949;SDS011;53057;50.988;6.314;2022-10-16T02:46:48;1.40;;;1.30;;
3949;SDS011;53057;50.988;6.314;2022-10-16T02:49:14;1.37;;;0.90;;
3949;SDS011;53057;50.988;6.314;2022-10-16T02:51:41;4.27;;;2.20;;
3949;SDS011;53057;50.988;6.314;2022-10-16T02:54:08;1.23;;;1.13;;
3949;SDS011;53057;50.988;6.314;2022-10-16T02:56:34;2.00;;;1.10;;
3949;SDS011;53057;50.988;6.314;2022-10-16T02:59:01;1.50;;;1.00;;
3949;SDS011;53057;50.988;6.314;2022-10-16T03:01:27;2.70;;;1.73;;
3949;SDS011;53057;50.988;6.314;2022-10-16T03:03:54;5.73;;;1.60;;
3949;SDS011;53057;50.988;6.314;2022-10-16T03:06:20;2.40;;;1.40;;
3949;SDS011;53057;50.988;6.314;2022-10-16T03:08:47;2.87;;;1.20;;
3949;SDS011;53057;50.988;6.314;2022-10-16T03:11:14;2.33;;;1.30;;
3949;SDS011;53057;50.988;6.314;2022-10-16T03:13:41;2.60;;;1.13;;
3949;SDS011;53057;50.988;6.314;2022-10-16T03:16:07;8.20;;;1.43;;
3949;SDS011;53057;50.988;6.314;2022-10-16T03:18:34;7.43;;;1.30;;
3949;SDS011;53057;50.988;6.314;2022-10-16T03:21:00;1.30;;;1.10;;
3949;SDS011;53057;50.988;6.314;2022-10-16T03:23:27;1.57;;;1.47;;
3949;SDS011;53057;50.988;6.314;2022-10-16T03:25:59;1.30;;;1.10;;
3949;SDS011;53057;50.988;6.314;2022-10-16T03:28:25;4.10;;;1.20;;
3949;SDS011;53057;50.988;6.314;2022-10-16T03:30:52;1.80;;;0.97;;
3949;SDS011;53057;50.988;6.314;2022-10-16T03:33:19;7.97;;;1.37;;
3949;SDS011;53057;50.988;6.314;2022-10-16T03:35:50;5.03;;;1.10;;
3949;SDS011;53057;50.988;6.314;2022-10-16T03:38:17;8.00;;;1.33;;
3949;SDS011;53057;50.988;6.314;2022-10-16T03:40:43;1.87;;;1.27;;
3949;SDS011;53057;50.988;6.314;2022-10-16T03:43:10;3.57;;;1.40;;
3949;SDS011;53057;50.988;6.314;2022-10-16T03:45:36;3.47;;;1.50;;
3949;SDS011;53057;50.988;6.314;2022-10-16T03:48:03;1.47;;;1.37;;
3949;SDS011;53057;50.988;6.314;2022-10-16T03:50:29;1.60;;;1.40;;
3949;SDS011;53057;50.988;6.314;2022-10-16T03:52:56;4.90;;;1.50;;
3949;SDS011;53057;50.988;6.314;2022-10-16T03:55:23;4.10;;;1.37;;
3949;SDS011;53057;50.988;6.314;2022-10-16T03:57:49;8.03;;;1.60;;
3949;SDS011;53057;50.988;6.314;2022-10-16T04:00:15;1.40;;;1.30;;
3949;SDS011;53057;50.988;6.314;2022-10-16T04:02:42;3.40;;;1.33;;
3949;SDS011;53057;50.988;6.314;2022-10-16T04:05:09;6.13;;;1.53;;
3949;SDS011;53057;50.988;6.314;2022-10-16T04:07:35;3.07;;;2.30;;
3949;SDS011;53057;50.988;6.314;2022-10-16T04:10:02;7.40;;;1.20;;
3949;SDS011;53057;50.988;6.314;2022-10-16T04:12:29;2.60;;;1.73;;
3949;SDS011;53057;50.988;6.314;2022-10-16T04:14:55;5.00;;;2.60;;
3949;SDS011;53057;50.988;6.314;2022-10-16T04:17:22;2.37;;;2.27;;
3949;SDS011;53057;50.988;6.314;2022-10-16T04:19:49;4.20;;;2.47;;
3949;SDS011;53057;50.988;6.314;2022-10-16T04:22:16;6.30;;;3.40;;
3949;SDS011;53057;50.988;6.314;2022-10-16T04:24:42;10.60;;;4.70;;
3949;SDS011;53057;50.988;6.314;2022-10-16T04:27:09;6.30;;;4.00;;
3949;SDS011;53057;50.988;6.314;2022-10-16T04:29:35;12.73;;;8.77;;
3949;SDS011;53057;50.988;6.314;2022-10-16T04:32:02;10.17;;;6.07;;
3949;SDS011;53057;50.988;6.314;2022-10-16T04:34:28;7.57;;;4.83;;
3949;SDS011;53057;50.988;6.314;2022-10-16T04:36:55;4.33;;;3.90;;
3949;SDS011;53057;50.988;6.314;2022-10-16T04:39:21;4.40;;;3.30;;
3949;SDS011;53057;50.988;6.314;2022-10-16T04:41:48;2.67;;;2.47;;
3949;SDS011;53057;50.988;6.314;2022-10-16T04:44:14;2.43;;;2.10;;
3949;SDS011;53057;50.988;6.314;2022-10-16T04:46:41;12.00;;;2.43;;
3949;SDS011;53057;50.988;6.314;2022-10-16T04:49:08;4.43;;;2.40;;
3949;SDS011;53057;50.988;6.314;2022-10-16T04:51:34;7.23;;;4.77;;
3949;SDS011;53057;50.988;6.314;2022-10-16T04:54:01;6.93;;;3.10;;
3949;SDS011;53057;50.988;6.314;2022-10-16T04:56:28;6.10;;;3.30;;
3949;SDS011;53057;50.988;6.314;2022-10-16T04:58:54;2.93;;;2.60;;
3949;SDS011;53057;50.988;6.314;2022-10-16T05:01:21;5.30;;;3.60;;
3949;SDS011;53057;50.988;6.314;2022-10-16T05:03:47;13.93;;;3.63;;
3949;SDS011;53057;50.988;6.314;2022-10-16T05:06:14;7.53;;;4.70;;
3949;SDS011;53057;50.988;6.314;2022-10-16T05:08:40;9.23;;;4.07;;
3949;SDS011;53057;50.988;6.314;2022-10-16T05:11:07;5.70;;;3.63;;
3949;SDS011;53057;50.988;6.314;2022-10-16T05:13:33;4.33;;;3.57;;
3949;SDS011;53057;50.988;6.314;2022-10-16T05:16:00;3.73;;;3.50;;
3949;SDS011;53057;50.988;6.314;2022-10-16T05:18:26;4.10;;;3.20;;
3949;SDS011;53057;50.988;6.314;2022-10-16T05:20:53;6.70;;;3.70;;
3949;SDS011;53057;50.988;6.314;2022-10-16T05:23:19;4.47;;;4.07;;
3949;SDS011;53057;50.988;6.314;2022-10-16T05:25:55;4.53;;;4.13;;
3949;SDS011;53057;50.988;6.314;2022-10-16T05:28:24;3.70;;;3.40;;
3949;SDS011;53057;50.988;6.314;2022-10-16T05:30:51;6.00;;;4.43;;
3949;SDS011;53057;50.988;6.314;2022-10-16T05:33:21;5.93;;;5.43;;
3949;SDS011;53057;50.988;6.314;2022-10-16T05:35:48;5.97;;;5.57;;
3949;SDS011;53057;50.988;6.314;2022-10-16T05:38:16;12.60;;;6.90;;
3949;SDS011;53057;50.988;6.314;2022-10-16T05:40:43;27.97;;;24.90;;
3949;SDS011;53057;50.988;6.314;2022-10-16T05:43:09;15.80;;;14.20;;
3949;SDS011;53057;50.988;6.314;2022-10-16T05:45:36;24.13;;;10.00;;
3949;SDS011;53057;50.988;6.314;2022-10-16T05:48:03;9.73;;;4.90;;
3949;SDS011;53057;50.988;6.314;2022-10-16T05:50:29;8.50;;;5.90;;
3949;SDS011;53057;50.988;6.314;2022-10-16T05:52:56;4.60;;;4.10;;
3949;SDS011;53057;50.988;6.314;2022-10-16T05:55:23;12.93;;;4.03;;
3949;SDS011;53057;50.988;6.314;2022-10-16T05:57:49;11.57;;;7.33;;
3949;SDS011;53057;50.988;6.314;2022-10-16T06:00:16;6.10;;;5.50;;
3949;SDS011;53057;50.988;6.314;2022-10-16T06:02:42;5.37;;;4.83;;
3949;SDS011;53057;50.988;6.314;2022-10-16T06:05:09;4.40;;;3.30;;
3949;SDS011;53057;50.988;6.314;2022-10-16T06:07:35;6.67;;;3.53;;
3949;SDS011;53057;50.988;6.314;2022-10-16T06:10:03;12.10;;;9.90;;
3949;SDS011;53057;50.988;6.314;2022-10-16T06:12:30;14.77;;;10.03;;
3949;SDS011;53057;50.988;6.314;2022-10-16T06:14:56;12.53;;;9.73;;
3949;SDS011;53057;50.988;6.314;2022-10-16T06:17:23;21.13;;;15.00;;
3949;SDS011;53057;50.988;6.314;2022-10-16T06:19:50;31.83;;;20.80;;
3949;SDS011;53057;50.988;6.314;2022-10-16T06:22:16;12.90;;;8.50;;
3949;SDS011;53057;50.988;6.314;2022-10-16T06:24:43;11.50;;;10.50;;
3949;SDS011;53057;50.988;6.314;2022-10-16T06:27:10;4.57;;;4.17;;
3949;SDS011;53057;50.988;6.314;2022-10-16T06:29:36;4.07;;;3.77;;
3949;SDS011;53057;50.988;6.314;2022-10-16T06:32:03;6.90;;;3.40;;
3949;SDS011;53057;50.988;6.314;2022-10-16T06:34:29;4.67;;;4.17;;
3949;SDS011;53057;50.988;6.314;2022-10-16T06:36:56;5.03;;;2.63;;
3949;SDS011;53057;50.988;6.314;2022-10-16T06:39:23;2.97;;;2.63;;
3949;SDS011;53057;50.988;6.314;2022-10-16T06:41:49;3.57;;;2.50;;
3949;SDS011;53057;50.988;6.314;2022-10-16T06:44:16;11.33;;;3.50;;
3949;SDS011;53057;50.988;6.314;2022-10-16T06:46:43;48.87;;;30.07;;
3949;SDS011;53057;50.988;6.314;2022-10-16T06:49:09;27.63;;;18.73;;
3949;SDS011;53057;50.988;6.314;2022-10-16T06:51:36;2.43;;;2.23;;
3949;SDS011;53057;50.988;6.314;2022-10-16T06:54:09;5.93;;;5.43;;
3949;SDS011;53057;50.988;6.314;2022-10-16T06:56:35;17.33;;;10.53;;
3949;SDS011;53057;50.988;6.314;2022-10-16T06:59:02;8.13;;;7.33;;
3949;SDS011;53057;50.988;6.314;2022-10-16T07:01:29;5.63;;;5.23;;
3949;SDS011;53057;50.988;6.314;2022-10-16T07:03:56;8.60;;;7.90;;
3949;SDS011;53057;50.988;6.314;2022-10-16T07:06:24;7.23;;;6.57;;
3949;SDS011;53057;50.988;6.314;2022-10-16T07:08:51;7.70;;;7.13;;
3949;SDS011;53057;50.988;6.314;2022-10-16T07:11:19;7.53;;;6.80;;
3949;SDS011;53057;50.988;6.314;2022-10-16T07:13:46;21.37;;;13.33;;
3949;SDS011;53057;50.988;6.314;2022-10-16T07:16:21;17.33;;;10.83;;
3949;SDS011;53057;50.988;6.314;2022-10-16T07:18:47;16.63;;;14.00;;
3949;SDS011;53057;50.988;6.314;2022-10-16T07:21:16;10.93;;;10.03;;
3949;SDS011;53057;50.988;6.314;2022-10-16T07:23:43;4.47;;;4.17;;
3949;SDS011;53057;50.988;6.314;2022-10-16T07:26:10;4.37;;;4.00;;
3949;SDS011;53057;50.988;6.314;2022-10-16T07:28:37;2.83;;;2.70;;
3949;SDS011;53057;50.988;6.314;2022-10-16T07:31:10;3.70;;;3.30;;
3949;SDS011;53057;50.988;6.314;2022-10-16T07:33:40;2.00;;;1.80;;
3949;SDS011;53057;50.988;6.314;2022-10-16T07:36:08;1.90;;;1.80;;
3949;SDS011;53057;50.988;6.314;2022-10-16T07:38:40;7.17;;;2.63;;
3949;SDS011;53057;50.988;6.314;2022-10-16T07:41:09;5.40;;;2.20;;
3949;SDS011;53057;50.988;6.314;2022-10-16T07:43:37;2.77;;;2.67;;
3949;SDS011;53057;50.988;6.314;2022-10-16T07:46:04;2.73;;;2.53;;
3949;SDS011;53057;50.988;6.314;2022-10-16T07:48:33;1.67;;;1.57;;
3949;SDS011;53057;50.988;6.314;2022-10-16T07:51:01;2.20;;;2.03;;
3949;SDS011;53057;50.988;6.314;2022-10-16T07:53:28;10.50;;;2.47;;
3949;SDS011;53057;50.988;6.314;2022-10-16T07:55:58;1.77;;;1.67;;
3949;SDS011;53057;50.988;6.314;2022-10-16T07:58:26;1.43;;;1.33;;
3949;SDS011;53057;50.988;6.314;2022-10-16T08:00:54;11.03;;;1.37;;
3949;SDS011;53057;50.988;6.314;2022-10-16T08:03:21;4.53;;;1.67;;
3949;SDS011;53057;50.988;6.314;2022-10-16T08:05:48;1.80;;;1.70;;
3949;SDS011;53057;50.988;6.314;2022-10-16T08:08:15;3.27;;;1.60;;
3949;SDS011;53057;50.988;6.314;2022-10-16T08:10:42;9.73;;;3.53;;
3949;SDS011;53057;50.988;6.314;2022-10-16T08:13:09;3.67;;;1.47;;
3949;SDS011;53057;50.988;6.314;2022-10-16T08:15:36;2.03;;;1.10;;
3949;SDS011;53057;50.988;6.314;2022-10-16T08:18:03;3.83;;;1.10;;
3949;SDS011;53057;50.988;6.314;2022-10-16T08:20:31;2.90;;;1.87;;
3949;SDS011;53057;50.988;6.314;2022-10-16T08:22:59;5.30;;;1.03;;
3949;SDS011;53057;50.988;6.314;2022-10-16T08:25:26;6.30;;;1.30;;
3949;SDS011;53057;50.988;6.314;2022-10-16T08:27:52;3.33;;;1.03;;
3949;SDS011;53057;50.988;6.314;2022-10-16T08:30:19;3.13;;;0.97;;
3949;SDS011;53057;50.988;6.314;2022-10-16T08:32:47;1.80;;;1.43;;
3949;SDS011;53057;50.988;6.314;2022-10-16T08:35:14;0.93;;;0.83;;
3949;SDS011;53057;50.988;6.314;2022-10-16T08:37:41;18.30;;;1.60;;
3949;SDS011;53057;50.988;6.314;2022-10-16T08:40:15;2.70;;;1.00;;
3949;SDS011;53057;50.988;6.314;2022-10-16T08:46:23;0.77;;;0.70;;
3949;SDS011;53057;50.988;6.314;2022-10-16T08:50:55;6.77;;;0.90;;
3949;SDS011;53057;50.988;6.314;2022-10-16T08:53:30;1.30;;;0.70;;
3949;SDS011;53057;50.988;6.314;2022-10-16T08:55:57;2.70;;;1.10;;
3949;SDS011;53057;50.988;6.314;2022-10-16T08:58:29;2.70;;;0.90;;
3949;SDS011;53057;50.988;6.314;2022-10-16T09:00:57;4.83;;;1.10;;
3949;SDS011;53057;50.988;6.314;2022-10-16T09:03:31;4.77;;;0.90;;
3949;SDS011;53057;50.988;6.314;2022-10-16T09:06:07;4.13;;;1.10;;
3949;SDS011;53057;50.988;6.314;2022-10-16T09:11:30;7.60;;;1.37;;
3949;SDS011;53057;50.988;6.314;2022-10-16T09:16:35;1.07;;;0.80;;
3949;SDS011;53057;50.988;6.314;2022-10-16T09:19:14;3.17;;;0.80;;
3949;SDS011;53057;50.988;6.314;2022-10-16T09:21:44;5.07;;;1.53;;
3949;SDS011;53057;50.988;6.314;2022-10-16T09:24:13;2.90;;;0.90;;
3949;SDS011;53057;50.988;6.314;2022-10-16T09:26:42;6.63;;;1.00;;
3949;SDS011;53057;50.988;6.314;2022-10-16T09:29:19;5.93;;;1.00;;
3949;SDS011;53057;50.988;6.314;2022-10-16T09:31:52;11.37;;;2.10;;
3949;SDS011;53057;50.988;6.314;2022-10-16T09:36:55;1.00;;;0.63;;
3949;SDS011;53057;50.988;6.314;2022-10-16T09:39:23;2.90;;;1.33;;
3949;SDS011;53057;50.988;6.314;2022-10-16T09:41:50;2.90;;;0.93;;
3949;SDS011;53057;50.988;6.314;2022-10-16T09:46:46;3.60;;;0.90;;
3949;SDS011;53057;50.988;6.314;2022-10-16T09:49:23;2.90;;;0.80;;
3949;SDS011;53057;50.988;6.314;2022-10-16T09:51:50;1.83;;;0.90;;
3949;SDS011;53057;50.988;6.314;2022-10-16T09:54:18;7.70;;;1.10;;
3949;SDS011;53057;50.988;6.314;2022-10-16T09:56:48;2.50;;;1.00;;
3949;SDS011;53057;50.988;6.314;2022-10-16T09:59:19;3.43;;;1.13;;
3949;SDS011;53057;50.988;6.314;2022-10-16T10:01:47;17.13;;;1.40;;
3949;SDS011;53057;50.988;6.314;2022-10-16T10:04:14;2.00;;;0.90;;
3949;SDS011;53057;50.988;6.314;2022-10-16T10:09:18;1.47;;;0.90;;
3949;SDS011;53057;50.988;6.314;2022-10-16T10:11:49;1.37;;;0.80;;
3949;SDS011;53057;50.988;6.314;2022-10-16T10:14:18;3.20;;;0.93;;
3949;SDS011;53057;50.988;6.314;2022-10-16T10:16:45;3.73;;;1.10;;
3949;SDS011;53057;50.988;6.314;2022-10-16T10:19:21;3.87;;;1.00;;
3949;SDS011;53057;50.988;6.314;2022-10-16T10:21:49;3.03;;;1.00;;
3949;SDS011;53057;50.988;6.314;2022-10-16T10:24:18;3.57;;;1.00;;
3949;SDS011;53057;50.988;6.314;2022-10-16T10:26:47;4.20;;;0.83;;
3949;SDS011;53057;50.988;6.314;2022-10-16T10:29:24;0.93;;;0.83;;
3949;SDS011;53057;50.988;6.314;2022-10-16T10:37:30;1.60;;;0.80;;
3949;SDS011;53057;50.988;6.314;2022-10-16T10:42:34;1.73;;;0.87;;
3949;SDS011;53057;50.988;6.314;2022-10-16T10:45:08;1.53;;;0.90;;
3949;SDS011;53057;50.988;6.314;2022-10-16T10:50:18;4.40;;;0.90;;
3949;SDS011;53057;50.988;6.314;2022-10-16T10:52:56;2.20;;;0.80;;
3949;SDS011;53057;50.988;6.314;2022-10-16T10:55:42;3.23;;;1.10;;
3949;SDS011;53057;50.988;6.314;2022-10-16T11:06:02;1.67;;;0.87;;
3949;SDS011;53057;50.988;6.314;2022-10-16T11:08:32;3.70;;;0.97;;
3949;SDS011;53057;50.988;6.314;2022-10-16T11:11:02;5.17;;;0.90;;
3949;SDS011;53057;50.988;6.314;2022-10-16T11:13:34;2.10;;;0.70;;
3949;SDS011;53057;50.988;6.314;2022-10-16T11:16:14;2.87;;;1.23;;
3949;SDS011;53057;50.988;6.314;2022-10-16T11:18:52;4.80;;;1.53;;
3949;SDS011;53057;50.988;6.314;2022-10-16T11:21:21;1.97;;;0.77;;
3949;SDS011;53057;50.988;6.314;2022-10-16T11:26:27;2.20;;;0.97;;
3949;SDS011;53057;50.988;6.314;2022-10-16T11:28:55;0.90;;;0.67;;
3949;SDS011;53057;50.988;6.314;2022-10-16T11:33:51;1.37;;;0.80;;
3949;SDS011;53057;50.988;6.314;2022-10-16T11:36:20;4.00;;;0.70;;
3949;SDS011;53057;50.988;6.314;2022-10-16T11:39:00;0.87;;;0.70;;
3949;SDS011;53057;50.988;6.314;2022-10-16T11:41:32;2.50;;;0.90;;
3949;SDS011;53057;50.988;6.314;2022-10-16T11:46:57;1.13;;;0.70;;
3949;SDS011;53057;50.988;6.314;2022-10-16T11:49:45;3.33;;;1.37;;
3949;SDS011;53057;50.988;6.314;2022-10-16T11:52:19;2.77;;;0.70;;
3949;SDS011;53057;50.988;6.314;2022-10-16T11:57:18;7.53;;;0.87;;
3949;SDS011;53057;50.988;6.314;2022-10-16T12:05:04;4.10;;;1.10;;
3949;SDS011;53057;50.988;6.314;2022-10-16T12:07:33;2.40;;;1.03;;
3949;SDS011;53057;50.988;6.314;2022-10-16T12:10:18;3.87;;;0.70;;
3949;SDS011;53057;50.988;6.314;2022-10-16T12:12:53;4.13;;;0.97;;
3949;SDS011;53057;50.988;6.314;2022-10-16T12:15:21;6.30;;;1.30;;
3949;SDS011;53057;50.988;6.314;2022-10-16T12:18:20;1.33;;;0.67;;
3949;SDS011;53057;50.988;6.314;2022-10-16T12:20:54;1.73;;;0.60;;
3949;SDS011;53057;50.988;6.314;2022-10-16T12:23:25;4.23;;;0.70;;
3949;SDS011;53057;50.988;6.314;2022-10-16T12:25:55;3.43;;;0.90;;
3949;SDS011;53057;50.988;6.314;2022-10-16T12:28:25;9.33;;;0.80;;
3949;SDS011;53057;50.988;6.314;2022-10-16T12:30:53;3.60;;;0.60;;
3949;SDS011;53057;50.988;6.314;2022-10-16T12:33:27;1.00;;;0.60;;
3949;SDS011;53057;50.988;6.314;2022-10-16T12:35:54;3.23;;;0.73;;
3949;SDS011;53057;50.988;6.314;2022-10-16T12:38:21;1.23;;;0.80;;
3949;SDS011;53057;50.988;6.314;2022-10-16T12:40:56;1.53;;;0.80;;
3949;SDS011;53057;50.988;6.314;2022-10-16T12:43:34;1.20;;;0.97;;
3949;SDS011;53057;50.988;6.314;2022-10-16T12:46:23;1.40;;;0.77;;
3949;SDS011;53057;50.988;6.314;2022-10-16T12:48:48;1.83;;;1.37;;
3949;SDS011;53057;50.988;6.314;2022-10-16T12:59:21;1.20;;;0.80;;
3949;SDS011;53057;50.988;6.314;2022-10-16T13:14:39;3.63;;;0.87;;
3949;SDS011;53057;50.988;6.314;2022-10-16T13:20:00;3.90;;;0.80;;
3949;SDS011;53057;50.988;6.314;2022-10-16T13:22:34;0.70;;;0.67;;
3949;SDS011;53057;50.988;6.314;2022-10-16T13:27:46;1.00;;;0.60;;
3949;SDS011;53057;50.988;6.314;2022-10-16T13:32:50;0.80;;;0.60;;
3949;SDS011;53057;50.988;6.314;2022-10-16T13:35:23;1.33;;;0.70;;
3949;SDS011;53057;50.988;6.314;2022-10-16T13:37:50;1.37;;;0.67;;
3949;SDS011;53057;50.988;6.314;2022-10-16T13:40:21;1.30;;;0.80;;
3949;SDS011;53057;50.988;6.314;2022-10-16T13:42:49;1.27;;;0.70;;
3949;SDS011;53057;50.988;6.314;2022-10-16T13:45:17;4.40;;;0.90;;
3949;SDS011;53057;50.988;6.314;2022-10-16T13:47:44;2.83;;;0.70;;
3949;SDS011;53057;50.988;6.314;2022-10-16T13:50:12;1.73;;;0.70;;
3949;SDS011;53057;50.988;6.314;2022-10-16T13:52:39;0.87;;;0.70;;
3949;SDS011;53057;50.988;6.314;2022-10-16T13:55:12;1.47;;;0.67;;
3949;SDS011;53057;50.988;6.314;2022-10-16T13:57:39;1.10;;;0.80;;
3949;SDS011;53057;50.988;6.314;2022-10-16T14:00:19;3.10;;;0.80;;
3949;SDS011;53057;50.988;6.314;2022-10-16T14:02:49;2.20;;;1.10;;
3949;SDS011;53057;50.988;6.314;2022-10-16T14:05:17;1.97;;;0.80;;
3949;SDS011;53057;50.988;6.314;2022-10-16T14:07:47;2.10;;;1.10;;
3949;SDS011;53057;50.988;6.314;2022-10-16T14:13:15;6.43;;;1.37;;
3949;SDS011;53057;50.988;6.314;2022-10-16T14:15:45;2.70;;;0.80;;
3949;SDS011;53057;50.988;6.314;2022-10-16T14:18:18;4.33;;;0.97;;
3949;SDS011;53057;50.988;6.314;2022-10-16T14:20:46;2.50;;;1.53;;
3949;SDS011;53057;50.988;6.314;2022-10-16T14:23:28;7.13;;;1.10;;
3949;SDS011;53057;50.988;6.314;2022-10-16T14:26:05;5.03;;;2.30;;
3949;SDS011;53057;50.988;6.314;2022-10-16T14:28:32;1.60;;;0.90;;
3949;SDS011;53057;50.988;6.314;2022-10-16T14:30:59;1.87;;;1.20;;
3949;SDS011;53057;50.988;6.314;2022-10-16T14:38:29;2.40;;;1.00;;
3949;SDS011;53057;50.988;6.314;2022-10-16T14:40:57;1.40;;;0.87;;
3949;SDS011;53057;50.988;6.314;2022-10-16T14:43:34;2.10;;;1.40;;
3949;SDS011;53057;50.988;6.314;2022-10-16T14:46:02;4.80;;;0.90;;
3949;SDS011;53057;50.988;6.314;2022-10-16T14:48:30;2.00;;;0.77;;
3949;SDS011;53057;50.988;6.314;2022-10-16T14:50:56;1.23;;;0.73;;
3949;SDS011;53057;50.988;6.314;2022-10-16T14:53:23;2.63;;;0.80;;
3949;SDS011;53057;50.988;6.314;2022-10-16T14:55:50;1.20;;;0.80;;
3949;SDS011;53057;50.988;6.314;2022-10-16T14:58:17;6.40;;;1.07;;
3949;SDS011;53057;50.988;6.314;2022-10-16T15:00:45;1.50;;;0.77;;
3949;SDS011;53057;50.988;6.314;2022-10-16T15:03:11;1.23;;;0.80;;
3949;SDS011;53057;50.988;6.314;2022-10-16T15:05:38;2.33;;;2.13;;
3949;SDS011;53057;50.988;6.314;2022-10-16T15:08:05;4.60;;;0.90;;
3949;SDS011;53057;50.988;6.314;2022-10-16T15:10:32;12.03;;;1.53;;
3949;SDS011;53057;50.988;6.314;2022-10-16T15:12:59;2.30;;;0.87;;
3949;SDS011;53057;50.988;6.314;2022-10-16T15:15:33;9.87;;;1.27;;
3949;SDS011;53057;50.988;6.314;2022-10-16T15:18:01;5.03;;;1.00;;
3949;SDS011;53057;50.988;6.314;2022-10-16T15:20:33;5.03;;;0.80;;
3949;SDS011;53057;50.988;6.314;2022-10-16T15:23:22;3.97;;;1.33;;
3949;SDS011;53057;50.988;6.314;2022-10-16T15:25:49;2.80;;;1.23;;
3949;SDS011;53057;50.988;6.314;2022-10-16T15:28:17;7.73;;;1.43;;
3949;SDS011;53057;50.988;6.314;2022-10-16T15:30:44;2.83;;;1.00;;
3949;SDS011;53057;50.988;6.314;2022-10-16T15:33:15;2.50;;;1.00;;
3949;SDS011;53057;50.988;6.314;2022-10-16T15:35:42;3.40;;;1.10;;
3949;SDS011;53057;50.988;6.314;2022-10-16T15:38:11;1.87;;;1.20;;
3949;SDS011;53057;50.988;6.314;2022-10-16T15:40:39;4.60;;;1.10;;
3949;SDS011;53057;50.988;6.314;2022-10-16T15:43:06;2.13;;;1.10;;
3949;SDS011;53057;50.988;6.314;2022-10-16T15:45:32;5.57;;;1.60;;
3949;SDS011;53057;50.988;6.314;2022-10-16T15:47:59;1.00;;;0.90;;
3949;SDS011;53057;50.988;6.314;2022-10-16T15:50:26;5.03;;;1.20;;
3949;SDS011;53057;50.988;6.314;2022-10-16T15:52:53;1.40;;;1.27;;
3949;SDS011;53057;50.988;6.314;2022-10-16T15:55:20;3.33;;;1.63;;
3949;SDS011;53057;50.988;6.314;2022-10-16T15:57:46;1.17;;;1.00;;
3949;SDS011;53057;50.988;6.314;2022-10-16T16:00:14;7.90;;;1.83;;
3949;SDS011;53057;50.988;6.314;2022-10-16T16:02:41;7.50;;;1.70;;
3949;SDS011;53057;50.988;6.314;2022-10-16T16:05:08;3.43;;;1.57;;
3949;SDS011;53057;50.988;6.314;2022-10-16T16:07:36;3.20;;;1.50;;
3949;SDS011;53057;50.988;6.314;2022-10-16T16:10:04;3.17;;;1.30;;
3949;SDS011;53057;50.988;6.314;2022-10-16T16:12:31;3.77;;;1.73;;
3949;SDS011;53057;50.988;6.314;2022-10-16T16:14:58;6.83;;;1.93;;
3949;SDS011;53057;50.988;6.314;2022-10-16T16:17:31;3.77;;;1.40;;
3949;SDS011;53057;50.988;6.314;2022-10-16T16:19:57;3.20;;;1.60;;
3949;SDS011;53057;50.988;6.314;2022-10-16T16:22:24;2.90;;;1.23;;
3949;SDS011;53057;50.988;6.314;2022-10-16T16:24:52;3.27;;;1.70;;
3949;SDS011;53057;50.988;6.314;2022-10-16T16:27:18;3.90;;;1.67;;
3949;SDS011;53057;50.988;6.314;2022-10-16T16:29:46;4.43;;;2.17;;
3949;SDS011;53057;50.988;6.314;2022-10-16T16:32:13;1.67;;;1.57;;
3949;SDS011;53057;50.988;6.314;2022-10-16T16:34:40;10.03;;;1.87;;
3949;SDS011;53057;50.988;6.314;2022-10-16T16:37:06;2.80;;;1.93;;
3949;SDS011;53057;50.988;6.314;2022-10-16T16:39:33;2.37;;;1.33;;
3949;SDS011;53057;50.988;6.314;2022-10-16T16:42:00;1.80;;;1.40;;
3949;SDS011;53057;50.988;6.314;2022-10-16T16:44:29;6.60;;;1.77;;
3949;SDS011;53057;50.988;6.314;2022-10-16T16:46:55;4.00;;;2.40;;
3949;SDS011;53057;50.988;6.314;2022-10-16T16:49:22;3.87;;;2.27;;
3949;SDS011;53057;50.988;6.314;2022-10-16T16:51:49;8.40;;;3.00;;
3949;SDS011;53057;50.988;6.314;2022-10-16T16:54:16;4.33;;;2.13;;